ADDS METAR Data INFO
IDs: Format: Raw Decoded Include TAF

Data at: 1929 UTC 19 Jul 2018

KSIK 191915Z AUTO 00000KT 10SM SCT037 32/23 A2991 RMK AO2
KSIK 191855Z AUTO 16004KT 10SM CLR 32/23 A2991 RMK AO2
KSIK 191835Z AUTO 20004KT 10SM CLR 32/22 A2992 RMK AO2
KSIK 191815Z AUTO 21003KT 10SM CLR 31/22 A2992 RMK AO2
KSIK 191755Z AUTO 21005KT 10SM CLR 31/22 A2992 RMK AO2
KSIK 191735Z AUTO 17004KT 10SM CLR 31/22 A2993 RMK AO2
KSIK 191715Z AUTO 24004KT 10SM CLR 30/22 A2993 RMK AO2
KSIK 191655Z AUTO 00000KT 10SM CLR 30/22 A2994 RMK AO2
KSIK 191635Z AUTO 18005KT 10SM CLR 30/22 A2994 RMK AO2
KSIK 191615Z AUTO 17005KT 10SM CLR 30/21 A2993 RMK AO2
KSIK 191555Z AUTO 16008KT 10SM CLR 30/21 A2994 RMK AO2
KSIK 191535Z AUTO 16007KT 10SM CLR 29/20 A2994 RMK AO2
KSIK 191515Z AUTO 14006KT 10SM CLR 28/20 A2995 RMK AO2
KSIK 191455Z AUTO 13007KT 10SM CLR 28/20 A2995 RMK AO2
KSIK 191435Z AUTO 13006KT 10SM CLR 27/20 A2996 RMK AO2
KSIK 191415Z AUTO 12006KT 10SM CLR 27/21 A2996 RMK AO2
KSIK 191355Z AUTO 11006KT 10SM CLR 26/21 A2996 RMK AO2
KSIK 191335Z AUTO 11004KT 10SM CLR 25/21 A2996 RMK AO2
KSIK 191315Z AUTO 09003KT 10SM CLR 23/21 A2996 RMK AO2
KSIK 191255Z AUTO 00000KT 10SM SCT050 22/21 A2996 RMK AO2
KSIK 191235Z AUTO 00000KT 10SM CLR 22/21 A2997 RMK AO2
KSIK 191215Z AUTO 00000KT 10SM CLR 22/21 A2996 RMK AO2
KSIK 191155Z AUTO 00000KT 10SM CLR 21/20 A2995 RMK AO2
KSIK 191135Z AUTO 00000KT 10SM CLR 21/20 A2995 RMK AO2
KSIK 191115Z AUTO 06003KT 10SM CLR 21/20 A2995 RMK AO2
KSIK 191055Z AUTO 00000KT 10SM CLR 21/20 A2995 RMK AO2
KSIK 191035Z AUTO 00000KT 10SM CLR 21/20 A2994 RMK AO2
KSIK 191015Z AUTO 00000KT 10SM CLR 21/20 A2995 RMK AO2
KSIK 190955Z AUTO 00000KT 10SM CLR 21/20 A2994 RMK AO2
KSIK 190935Z AUTO 08003KT 10SM CLR 21/20 A2994 RMK AO2
KSIK 190915Z AUTO 00000KT 10SM CLR 21/20 A2995 RMK AO2
KSIK 190855Z AUTO 00000KT 10SM CLR 21/20 A2995 RMK AO2
KSIK 190835Z AUTO 00000KT 10SM CLR 21/20 A2996 RMK AO2
KSIK 190815Z AUTO 00000KT 10SM CLR 21/20 A2995 RMK AO2
KSIK 190755Z AUTO 00000KT 10SM CLR 22/21 A2996 RMK AO2
KSIK 190735Z AUTO 00000KT 10SM CLR 22/20 A2996 RMK AO2
KSIK 190715Z AUTO 00000KT 10SM CLR 22/21 A2996 RMK AO2
KSIK 190655Z AUTO 06003KT 10SM CLR 22/21 A2996 RMK AO2
KSIK 190635Z AUTO 00000KT 10SM CLR 23/21 A2997 RMK AO2
KSIK 190615Z AUTO 00000KT 10SM CLR 22/20 A2997 RMK AO2
KSIK 190555Z AUTO 00000KT 10SM CLR 22/21 A2997 RMK AO2
KSIK 190535Z AUTO 00000KT 10SM CLR 22/21 A2997 RMK AO2
KSIK 190515Z AUTO 00000KT 10SM CLR 23/21 A2998 RMK AO2
KSIK 190455Z AUTO 06003KT 10SM CLR 23/21 A2997 RMK AO2
KSIK 190435Z AUTO 05003KT 10SM CLR 22/21 A2998 RMK AO2
KSIK 190415Z AUTO 07003KT 10SM CLR 23/21 A2997 RMK AO2
KSIK 190355Z AUTO 07003KT 10SM CLR 23/21 A2998 RMK AO2
KSIK 190335Z AUTO 06003KT 10SM CLR 23/21 A2997 RMK AO2
KSIK 190315Z AUTO 05003KT 10SM CLR 23/21 A2997 RMK AO2
KSIK 190255Z AUTO 05004KT 10SM CLR 23/21 A2996 RMK AO2
KSIK 190235Z AUTO 06003KT 10SM CLR 24/22 A2996 RMK AO2
KSIK 190215Z AUTO 05004KT 10SM CLR 25/22 A2995 RMK AO2
KSIK 190155Z AUTO 07003KT 10SM CLR 25/22 A2995 RMK AO2
KSIK 190135Z AUTO 06004KT 10SM CLR 26/22 A2995 RMK AO2
KSIK 190115Z AUTO 06004KT 10SM CLR 27/21 A2995 RMK AO2
KSIK 190055Z AUTO 06004KT 10SM CLR 27/21 A2995 RMK AO2
KSIK 190035Z AUTO 06005KT 10SM CLR 28/21 A2995 RMK AO2
KSIK 190015Z AUTO 06006KT 10SM CLR 29/21 A2995 RMK AO2
KSIK 182355Z AUTO 06005KT 10SM CLR 30/21 A2995 RMK AO2
KSIK 182335Z AUTO 06005KT 10SM CLR 30/21 A2995 RMK AO2
KSIK 182315Z AUTO 06007KT 10SM CLR 29/21 A2995 RMK AO2
KSIK 182255Z AUTO 06007KT 10SM CLR 30/21 A2996 RMK AO2
KSIK 182235Z AUTO 08005KT 10SM CLR 30/20 A2996 RMK AO2
KSIK 182215Z AUTO 10005KT 10SM CLR 31/20 A2996 RMK AO2
KSIK 182155Z AUTO 12005KT 10SM CLR 32/20 A2997 RMK AO2
KSIK 182135Z AUTO 08004KT 10SM CLR 31/19 A2997 RMK AO2 LTG DSNT SW AND W
KSIK 182115Z AUTO 07007KT 10SM CLR 31/20 A2997 RMK AO2 LTG DSNT SW
KSIK 182055Z AUTO 07005KT 10SM CLR 30/21 A2998 RMK AO2
KSIK 182035Z AUTO 07005KT 10SM CLR 30/21 A2998 RMK AO2 LTG DSNT W
KSIK 182015Z AUTO 07006KT 10SM CLR 30/21 A2998 RMK AO2
KSIK 181955Z AUTO 08005KT 10SM CLR 30/20 A3000 RMK AO2
KSIK 181935Z AUTO 07006KT 10SM CLR 30/20 A3000 RMK AO2
KSIK 181915Z AUTO 06007KT 10SM CLR 30/20 A3001 RMK AO2
KSIK 181855Z AUTO 06005KT 10SM CLR 30/20 A3001 RMK AO2
KSIK 181835Z AUTO 07006KT 10SM CLR 30/20 A3001 RMK AO2
KSIK 181815Z AUTO 08007KT 10SM CLR 31/21 A3002 RMK AO2
KSIK 181755Z AUTO 11005KT 10SM CLR 31/20 A3003 RMK AO2 LTG DSNT W
KSIK 181735Z AUTO 09005KT 10SM CLR 30/20 A3003 RMK AO2
KSIK 181715Z AUTO 09005KT 10SM CLR 30/21 A3004 RMK AO2
KSIK 181655Z AUTO 09005KT 10SM CLR 30/20 A3004 RMK AO2
KSIK 181635Z AUTO 12006KT 10SM CLR 30/21 A3004 RMK AO2
KSIK 181615Z AUTO 09006KT 10SM CLR 29/21 A3004 RMK AO2
KSIK 181555Z AUTO 09007KT 10SM CLR 28/21 A3005 RMK AO2
KSIK 181535Z AUTO 09005KT 10SM CLR 28/20 A3005 RMK AO2
KSIK 181515Z AUTO 08006KT 10SM CLR 27/21 A3005 RMK AO2
KSIK 181455Z AUTO 07004KT 10SM CLR 26/20 A3005 RMK AO2
KSIK 181435Z AUTO 08005KT 10SM CLR 26/20 A3005 RMK AO2
KSIK 181415Z AUTO 08005KT 10SM CLR 26/20 A3006 RMK AO2
KSIK 181355Z AUTO 07003KT 10SM CLR 25/21 A3005 RMK AO2 LTG DSNT W
KSIK 181335Z AUTO 04003KT 10SM CLR 25/21 A3005 RMK AO2
KSIK 181315Z AUTO 06003KT 10SM CLR 25/21 A3004 RMK AO2
KSIK 181255Z AUTO 06003KT 10SM CLR 24/20 A3003 RMK AO2
KSIK 181235Z AUTO 04003KT 10SM CLR 23/20 A3003 RMK AO2
KSIK 181215Z AUTO 04004KT 10SM CLR 23/20 A3002 RMK AO2
KSIK 181155Z AUTO 05004KT 10SM CLR 23/21 A3002 RMK AO2
KSIK 181135Z AUTO 05004KT 10SM CLR 23/21 A3002 RMK AO2
KSIK 181115Z AUTO 04005KT 10SM CLR 23/21 A3002 RMK AO2
KSIK 181055Z AUTO 04005KT 10SM CLR 23/21 A3002 RMK AO2
KSIK 181035Z AUTO 05004KT 10SM CLR 23/21 A3001 RMK AO2
KSIK 181015Z AUTO 04005KT 10SM CLR 24/21 A3001 RMK AO2
KSIK 180955Z AUTO 04003KT 10SM CLR 24/21 A3001 RMK AO2
KSIK 180935Z AUTO 03003KT 10SM CLR 24/22 A3001 RMK AO2
KSIK 180915Z AUTO 02003KT 10SM CLR 24/22 A3001 RMK AO2
KSIK 180855Z AUTO 03004KT 10SM CLR 25/22 A3001 RMK AO2
KSIK 180835Z AUTO 00000KT 10SM SCT046 25/22 A3001 RMK AO2
KSIK 180815Z AUTO 04003KT 10SM SCT046 25/22 A3001 RMK AO2
KSIK 180755Z AUTO 03003KT 10SM CLR 25/22 A3001 RMK AO2
KSIK 180735Z AUTO 00000KT 10SM CLR 25/22 A3001 RMK AO2